Seishin Maru — JL6275 — position and weather

sailwx.info

Track history (hours):
 
Tides and Currents Weather Stations Pressure Air Temp Water Temp Dewpoint Dewpoint Depression Visibility Wind Speed Wind Dir Waves Ship Positions

Seishin Maru

Last reported at 2017-Nov-11 18:16 UTC. Time now 2017-Nov-21 11:50 UTC.
Position N 34°55' E 139°41'.
Warning: this ship's position is 9 days out of date.

Length 76 m; draft 4.2 m.

Type: Cargo ship. MMSI: 431500543.

Date/timePositionNaut miles runAvg speedWind from/ knotsBaromVisibWave heightAir tempDewpointWater temp
2017-Nov-11 18:16N 34°55' E 139°41'4 8.4
2017-Nov-11 17:48N 34°53' E 139°45'2 0.1
2017-Nov-10 11:50N 34°51' E 139°45'610.1
2017-Nov-10 11:15N 34°50' E 139°37'233 8.3
2017-Nov-09 07:07N 34°00' E 135°01'510.8
2017-Nov-09 06:40N 34°05' E 135°01'210.5
2017-Nov-09 06:29N 34°07' E 135°00'510.3
2017-Nov-09 06:00N 34°12' E 134°60'14 9.0
2017-Nov-09 04:25N 34°26' E 135°01'4 9.1
2017-Nov-09 03:59N 34°30' E 135°02'4 8.5
2017-Nov-09 03:30N 34°34' E 135°03'3 5.4
2017-Nov-09 02:58N 34°37' E 135°01'  
Track history (hours):
 
Tides and Currents Weather Stations Pressure Air Temp Water Temp Dewpoint Dewpoint Depression Visibility Wind Speed Wind Dir Waves Ship Positions

Seishin Maru

Last reported at 2017-Nov-11 18:16 UTC. Time now 2017-Nov-21 11:50 UTC.
Position N 34°55' E 139°41'.
Warning: this ship's position is 9 days out of date.

Length 76 m; draft 4.2 m.

Type: Cargo ship. MMSI: 431500543.

Date/timePositionNaut miles runAvg speedWind from/ knotsBaromVisibWave heightAir tempDewpointWater temp
2017-Nov-11 18:16N 34°55' E 139°41'4 8.4
2017-Nov-11 17:48N 34°53' E 139°45'2 0.1
2017-Nov-10 11:50N 34°51' E 139°45'610.1
2017-Nov-10 11:15N 34°50' E 139°37'233 8.3
2017-Nov-09 07:07N 34°00' E 135°01'510.8
2017-Nov-09 06:40N 34°05' E 135°01'210.5
2017-Nov-09 06:29N 34°07' E 135°00'510.3
2017-Nov-09 06:00N 34°12' E 134°60'14 9.0
2017-Nov-09 04:25N 34°26' E 135°01'4 9.1
2017-Nov-09 03:59N 34°30' E 135°02'4 8.5
2017-Nov-09 03:30N 34°34' E 135°03'3 5.4
2017-Nov-09 02:58N 34°37' E 135°01'  

Dump ship's entire track history